sensor_id;sensor_type;location;lat;lon;timestamp;pressure;altitude;pressure_sealevel;temperature;humidity
65376;BME280;51976;47.332;9.404;2022-08-21T00:01:52;93121.91;;;21.54;55.11
65376;BME280;51976;47.332;9.404;2022-08-21T00:04:18;93112.41;;;21.52;55.02
65376;BME280;51976;47.332;9.404;2022-08-21T00:06:43;93119.50;;;21.53;55.06
65376;BME280;51976;47.332;9.404;2022-08-21T00:09:09;93106.91;;;21.52;55.09
65376;BME280;51976;47.332;9.404;2022-08-21T00:11:36;93109.66;;;21.52;55.31
65376;BME280;51976;47.332;9.404;2022-08-21T00:14:04;93110.00;;;21.50;54.92
65376;BME280;51976;47.332;9.404;2022-08-21T00:16:29;93108.88;;;21.51;55.34
65376;BME280;51976;47.332;9.404;2022-08-21T00:18:55;93108.88;;;21.51;55.26
65376;BME280;51976;47.332;9.404;2022-08-21T00:21:20;93111.94;;;21.50;55.13
65376;BME280;51976;47.332;9.404;2022-08-21T00:23:47;93111.16;;;21.49;54.91
65376;BME280;51976;47.332;9.404;2022-08-21T00:26:12;93106.00;;;21.48;55.09
65376;BME280;51976;47.332;9.404;2022-08-21T00:28:38;93113.44;;;21.47;55.11
65376;BME280;51976;47.332;9.404;2022-08-21T00:31:03;93110.34;;;21.49;55.17
65376;BME280;51976;47.332;9.404;2022-08-21T00:33:29;93108.41;;;21.49;55.04
65376;BME280;51976;47.332;9.404;2022-08-21T00:35:55;93111.16;;;21.49;54.98
65376;BME280;51976;47.332;9.404;2022-08-21T00:38:21;93110.69;;;21.47;54.96
65376;BME280;51976;47.332;9.404;2022-08-21T00:40:51;93109.09;;;21.46;55.19
65376;BME280;51976;47.332;9.404;2022-08-21T00:43:22;93110.22;;;21.45;55.18
65376;BME280;51976;47.332;9.404;2022-08-21T00:45:48;93104.75;;;21.45;55.21
65376;BME280;51976;47.332;9.404;2022-08-21T00:48:15;93102.81;;;21.46;55.24
65376;BME280;51976;47.332;9.404;2022-08-21T00:50:50;93098.47;;;21.45;55.03
65376;BME280;51976;47.332;9.404;2022-08-21T00:53:17;93108.28;;;21.46;55.22
65376;BME280;51976;47.332;9.404;2022-08-21T00:55:43;93110.56;;;21.44;55.20
65376;BME280;51976;47.332;9.404;2022-08-21T00:58:11;93103.47;;;21.43;55.04
65376;BME280;51976;47.332;9.404;2022-08-21T01:00:39;93099.13;;;21.42;55.23
65376;BME280;51976;47.332;9.404;2022-08-21T01:03:09;93094.47;;;21.42;55.24
65376;BME280;51976;47.332;9.404;2022-08-21T01:05:36;93100.28;;;21.41;55.23
65376;BME280;51976;47.332;9.404;2022-08-21T01:08:03;93105.44;;;21.42;55.00
65376;BME280;51976;47.332;9.404;2022-08-21T01:10:29;93098.34;;;21.41;54.94
65376;BME280;51976;47.332;9.404;2022-08-21T01:12:55;93101.09;;;21.41;55.05
65376;BME280;51976;47.332;9.404;2022-08-21T01:15:25;93095.59;;;21.41;55.01
65376;BME280;51976;47.332;9.404;2022-08-21T01:17:53;93094.78;;;21.41;55.00
65376;BME280;51976;47.332;9.404;2022-08-21T01:20:19;93093.19;;;21.40;54.93
65376;BME280;51976;47.332;9.404;2022-08-21T01:22:44;93094.34;;;21.39;55.07
65376;BME280;51976;47.332;9.404;2022-08-21T01:25:14;93091.59;;;21.39;54.99
65376;BME280;51976;47.332;9.404;2022-08-21T01:27:40;93092.41;;;21.39;55.03
65376;BME280;51976;47.332;9.404;2022-08-21T01:30:14;93090.00;;;21.38;55.18
65376;BME280;51976;47.332;9.404;2022-08-21T01:32:40;93090.00;;;21.38;54.96
65376;BME280;51976;47.332;9.404;2022-08-21T01:35:06;93087.25;;;21.38;55.01
65376;BME280;51976;47.332;9.404;2022-08-21T01:37:33;93090.00;;;21.38;54.95
65376;BME280;51976;47.332;9.404;2022-08-21T01:39:58;93082.91;;;21.37;55.09
65376;BME280;51976;47.332;9.404;2022-08-21T01:42:24;93083.72;;;21.37;55.07
65376;BME280;51976;47.332;9.404;2022-08-21T01:44:49;93079.38;;;21.36;55.12
65376;BME280;51976;47.332;9.404;2022-08-21T01:47:15;93075.81;;;21.36;54.96
65376;BME280;51976;47.332;9.404;2022-08-21T01:49:42;93077.75;;;21.35;55.07
65376;BME280;51976;47.332;9.404;2022-08-21T01:52:08;93075.81;;;21.36;55.00
65376;BME280;51976;47.332;9.404;2022-08-21T01:54:33;93071.47;;;21.35;54.94
65376;BME280;51976;47.332;9.404;2022-08-21T01:56:59;93070.00;;;21.37;54.99
65376;BME280;51976;47.332;9.404;2022-08-21T01:59:26;93069.88;;;21.34;54.91
65376;BME280;51976;47.332;9.404;2022-08-21T02:01:52;93066.00;;;21.35;54.95
65376;BME280;51976;47.332;9.404;2022-08-21T02:04:20;93061.66;;;21.34;55.04
65376;BME280;51976;47.332;9.404;2022-08-21T02:06:46;93061.66;;;21.34;54.80
65376;BME280;51976;47.332;9.404;2022-08-21T02:09:12;93054.22;;;21.34;55.14
65376;BME280;51976;47.332;9.404;2022-08-21T02:11:39;93056.53;;;21.32;54.85
65376;BME280;51976;47.332;9.404;2022-08-21T02:14:09;93063.97;;;21.32;54.96
65376;BME280;51976;47.332;9.404;2022-08-21T02:16:37;93056.88;;;21.31;55.21
65376;BME280;51976;47.332;9.404;2022-08-21T02:19:03;93049.81;;;21.30;55.16
65376;BME280;51976;47.332;9.404;2022-08-21T02:21:28;93046.72;;;21.31;55.21
65376;BME280;51976;47.332;9.404;2022-08-21T02:23:54;93045.91;;;21.31;54.87
65376;BME280;51976;47.332;9.404;2022-08-21T02:26:19;93036.09;;;21.30;55.06
65376;BME280;51976;47.332;9.404;2022-08-21T02:28:45;93029.81;;;21.29;54.92
65376;BME280;51976;47.332;9.404;2022-08-21T02:31:11;93037.22;;;21.28;55.10
65376;BME280;51976;47.332;9.404;2022-08-21T02:33:36;93041.91;;;21.28;55.08
65376;BME280;51976;47.332;9.404;2022-08-21T02:36:03;93036.88;;;21.30;55.00
65376;BME280;51976;47.332;9.404;2022-08-21T02:38:31;93029.00;;;21.28;55.08
65376;BME280;51976;47.332;9.404;2022-08-21T02:40:58;93037.22;;;21.28;54.79
65376;BME280;51976;47.332;9.404;2022-08-21T02:43:25;93031.75;;;21.28;54.96
65376;BME280;51976;47.332;9.404;2022-08-21T02:45:51;93027.06;;;21.29;54.91
65376;BME280;51976;47.332;9.404;2022-08-21T02:48:20;93032.09;;;21.27;54.71
65376;BME280;51976;47.332;9.404;2022-08-21T02:50:54;93031.28;;;21.26;54.90
65376;BME280;51976;47.332;9.404;2022-08-21T02:53:21;93032.44;;;21.25;55.05
65376;BME280;51976;47.332;9.404;2022-08-21T02:55:49;93032.09;;;21.27;54.97
65376;BME280;51976;47.332;9.404;2022-08-21T02:58:17;93044.19;;;21.26;55.01
65376;BME280;51976;47.332;9.404;2022-08-21T03:00:43;93035.19;;;21.25;55.06
65376;BME280;51976;47.332;9.404;2022-08-21T03:03:10;93031.63;;;21.25;54.94
65376;BME280;51976;47.332;9.404;2022-08-21T03:05:36;93028.56;;;21.26;54.77
65376;BME280;51976;47.332;9.404;2022-08-21T03:08:05;93033.22;;;21.26;54.83
65376;BME280;51976;47.332;9.404;2022-08-21T03:10:34;93030.84;;;21.24;54.87
65376;BME280;51976;47.332;9.404;2022-08-21T03:13:00;93028.44;;;21.23;54.78
65376;BME280;51976;47.332;9.404;2022-08-21T03:15:27;93019.41;;;21.22;54.80
65376;BME280;51976;47.332;9.404;2022-08-21T03:17:53;93021.00;;;21.23;54.96
65376;BME280;51976;47.332;9.404;2022-08-21T03:20:22;93020.22;;;21.23;54.81
65376;BME280;51976;47.332;9.404;2022-08-21T03:22:52;93010.38;;;21.22;54.66
65376;BME280;51976;47.332;9.404;2022-08-21T03:25:18;93006.03;;;21.21;54.83
65376;BME280;51976;47.332;9.404;2022-08-21T03:27:44;93007.97;;;21.20;54.98
65376;BME280;51976;47.332;9.404;2022-08-21T03:30:11;93002.50;;;21.20;54.99
65376;BME280;51976;47.332;9.404;2022-08-21T03:32:36;93008.78;;;21.21;54.80
65376;BME280;51976;47.332;9.404;2022-08-21T03:35:03;93010.38;;;21.22;55.01
65376;BME280;51976;47.332;9.404;2022-08-21T03:37:29;92997.03;;;21.20;54.65
65376;BME280;51976;47.332;9.404;2022-08-21T03:39:55;93000.06;;;21.19;54.81
65376;BME280;51976;47.332;9.404;2022-08-21T03:42:20;93002.50;;;21.20;54.80
65376;BME280;51976;47.332;9.404;2022-08-21T03:44:47;93001.66;;;21.20;54.66
65376;BME280;51976;47.332;9.404;2022-08-21T03:47:13;93003.63;;;21.19;54.88
65376;BME280;51976;47.332;9.404;2022-08-21T03:49:39;93003.63;;;21.19;54.87
65376;BME280;51976;47.332;9.404;2022-08-21T03:52:04;93002.50;;;21.20;54.86
65376;BME280;51976;47.332;9.404;2022-08-21T03:54:30;93001.22;;;21.18;54.77
65376;BME280;51976;47.332;9.404;2022-08-21T03:56:56;93006.34;;;21.19;54.71
65376;BME280;51976;47.332;9.404;2022-08-21T03:59:22;93012.63;;;21.20;54.85
65376;BME280;51976;47.332;9.404;2022-08-21T04:01:55;93011.38;;;21.17;54.97
65376;BME280;51976;47.332;9.404;2022-08-21T04:04:21;93009.78;;;21.16;54.91
65376;BME280;51976;47.332;9.404;2022-08-21T04:06:46;93008.63;;;21.17;54.85
65376;BME280;51976;47.332;9.404;2022-08-21T04:09:12;93010.91;;;21.15;54.64
65376;BME280;51976;47.332;9.404;2022-08-21T04:11:37;93016.88;;;21.17;54.59
65376;BME280;51976;47.332;9.404;2022-08-21T04:16:28;93021.19;;;21.18;54.55
65376;BME280;51976;47.332;9.404;2022-08-21T04:21:19;93018.00;;;21.16;54.71
65376;BME280;51976;47.332;9.404;2022-08-21T04:23:44;93018.69;;;21.13;54.83
65376;BME280;51976;47.332;9.404;2022-08-21T04:26:10;93023.16;;;21.18;54.71
65376;BME280;51976;47.332;9.404;2022-08-21T04:28:35;93025.09;;;21.17;54.74
65376;BME280;51976;47.332;9.404;2022-08-21T04:33:26;93034.00;;;21.14;54.68
65376;BME280;51976;47.332;9.404;2022-08-21T04:35:52;93028.50;;;21.14;54.74
65376;BME280;51976;47.332;9.404;2022-08-21T04:38:18;93025.78;;;21.14;54.63
65376;BME280;51976;47.332;9.404;2022-08-21T04:40:43;93034.78;;;21.15;54.77
65376;BME280;51976;47.332;9.404;2022-08-21T04:43:10;93042.22;;;21.14;54.54
65376;BME280;51976;47.332;9.404;2022-08-21T04:45:39;93032.84;;;21.15;54.66
65376;BME280;51976;47.332;9.404;2022-08-21T04:48:07;93042.22;;;21.14;54.50
65376;BME280;51976;47.332;9.404;2022-08-21T04:50:42;93043.81;;;21.15;54.67
65376;BME280;51976;47.332;9.404;2022-08-21T04:53:13;93046.91;;;21.14;54.54
65376;BME280;51976;47.332;9.404;2022-08-21T04:55:41;93053.19;;;21.14;54.65
65376;BME280;51976;47.332;9.404;2022-08-21T04:58:10;93046.91;;;21.14;54.58
65376;BME280;51976;47.332;9.404;2022-08-21T05:00:36;93049.97;;;21.12;54.43
65376;BME280;51976;47.332;9.404;2022-08-21T05:03:05;93046.09;;;21.13;54.60
65376;BME280;51976;47.332;9.404;2022-08-21T05:05:31;93051.59;;;21.13;54.58
65376;BME280;51976;47.332;9.404;2022-08-21T05:07:59;93051.59;;;21.13;54.54
65376;BME280;51976;47.332;9.404;2022-08-21T05:10:26;93055.81;;;21.11;54.46
65376;BME280;51976;47.332;9.404;2022-08-21T05:12:52;93045.31;;;21.13;54.46
65376;BME280;51976;47.332;9.404;2022-08-21T05:15:18;93045.97;;;21.10;54.67
65376;BME280;51976;47.332;9.404;2022-08-21T05:17:43;93053.53;;;21.13;54.57
65376;BME280;51976;47.332;9.404;2022-08-21T05:20:10;93053.88;;;21.11;54.70
65376;BME280;51976;47.332;9.404;2022-08-21T05:22:36;93058.53;;;21.11;54.41
65376;BME280;51976;47.332;9.404;2022-08-21T05:25:02;93055.81;;;21.11;54.60
65376;BME280;51976;47.332;9.404;2022-08-21T05:27:28;93051.13;;;21.11;54.75
65376;BME280;51976;47.332;9.404;2022-08-21T05:29:55;93054.66;;;21.12;54.63
65376;BME280;51976;47.332;9.404;2022-08-21T05:32:21;93061.63;;;21.09;54.52
65376;BME280;51976;47.332;9.404;2022-08-21T05:34:47;93059.69;;;21.10;54.45
65376;BME280;51976;47.332;9.404;2022-08-21T05:37:12;93051.13;;;21.11;54.60
65376;BME280;51976;47.332;9.404;2022-08-21T05:39:38;93062.44;;;21.10;54.32
65376;BME280;51976;47.332;9.404;2022-08-21T05:42:03;93048.72;;;21.10;54.65
65376;BME280;51976;47.332;9.404;2022-08-21T05:44:29;93043.59;;;21.08;54.64
65376;BME280;51976;47.332;9.404;2022-08-21T05:46:54;93050.66;;;21.09;54.52
65376;BME280;51976;47.332;9.404;2022-08-21T05:49:20;93042.44;;;21.09;54.63
65376;BME280;51976;47.332;9.404;2022-08-21T05:51:45;93041.97;;;21.07;54.60
65376;BME280;51976;47.332;9.404;2022-08-21T05:54:10;93046.78;;;21.10;54.58
65376;BME280;51976;47.332;9.404;2022-08-21T05:56:36;93053.88;;;21.11;54.49
65376;BME280;51976;47.332;9.404;2022-08-21T05:59:02;93046.78;;;21.10;54.65
65376;BME280;51976;47.332;9.404;2022-08-21T06:01:27;93050.66;;;21.09;54.74
65376;BME280;51976;47.332;9.404;2022-08-21T06:03:54;93049.53;;;21.10;54.42
65376;BME280;51976;47.332;9.404;2022-08-21T06:06:19;93040.50;;;21.10;54.50
65376;BME280;51976;47.332;9.404;2022-08-21T06:08:45;93044.03;;;21.10;54.67
65376;BME280;51976;47.332;9.404;2022-08-21T06:11:10;93035.81;;;21.10;54.47
65376;BME280;51976;47.332;9.404;2022-08-21T06:13:36;93039.34;;;21.11;54.35
65376;BME280;51976;47.332;9.404;2022-08-21T06:16:07;93030.34;;;21.10;54.61
65376;BME280;51976;47.332;9.404;2022-08-21T06:18:34;93028.41;;;21.11;54.52
65376;BME280;51976;47.332;9.404;2022-08-21T06:21:00;93022.91;;;21.11;54.54
65376;BME280;51976;47.332;9.404;2022-08-21T06:23:25;93020.97;;;21.11;54.62
65376;BME280;51976;47.332;9.404;2022-08-21T06:25:51;93021.78;;;21.12;54.41
65376;BME280;51976;47.332;9.404;2022-08-21T06:28:16;93021.78;;;21.12;54.58
65376;BME280;51976;47.332;9.404;2022-08-21T06:30:41;93019.81;;;21.12;54.45
65376;BME280;51976;47.332;9.404;2022-08-21T06:33:07;93017.09;;;21.12;54.25
65376;BME280;51976;47.332;9.404;2022-08-21T06:35:34;93009.22;;;21.11;54.44
65376;BME280;51976;47.332;9.404;2022-08-21T06:37:59;93011.16;;;21.10;54.36
65376;BME280;51976;47.332;9.404;2022-08-21T06:40:29;93005.31;;;21.12;54.48
65376;BME280;51976;47.332;9.404;2022-08-21T06:42:56;93002.59;;;21.12;54.19
65376;BME280;51976;47.332;9.404;2022-08-21T06:45:22;93005.31;;;21.12;54.45
65376;BME280;51976;47.332;9.404;2022-08-21T06:47:47;93002.94;;;21.10;54.23
65376;BME280;51976;47.332;9.404;2022-08-21T06:50:12;93003.84;;;21.14;54.18
65376;BME280;51976;47.332;9.404;2022-08-21T06:52:38;93004.97;;;21.13;54.31
65376;BME280;51976;47.332;9.404;2022-08-21T06:55:06;93003.84;;;21.14;54.18
65376;BME280;51976;47.332;9.404;2022-08-21T06:57:32;93002.25;;;21.13;54.43
65376;BME280;51976;47.332;9.404;2022-08-21T06:59:57;93002.25;;;21.13;54.20
65376;BME280;51976;47.332;9.404;2022-08-21T07:04:48;93004.31;;;21.16;54.34
65376;BME280;51976;47.332;9.404;2022-08-21T07:07:13;93004.31;;;21.16;54.44
65376;BME280;51976;47.332;9.404;2022-08-21T07:09:39;92998.81;;;21.16;54.37
65376;BME280;51976;47.332;9.404;2022-08-21T07:12:05;92997.69;;;21.17;54.37
65376;BME280;51976;47.332;9.404;2022-08-21T07:14:30;92999.97;;;21.15;54.14
65376;BME280;51976;47.332;9.404;2022-08-21T07:16:56;93000.41;;;21.17;54.42
65376;BME280;51976;47.332;9.404;2022-08-21T07:19:21;93005.44;;;21.15;54.28
65376;BME280;51976;47.332;9.404;2022-08-21T07:21:46;93004.75;;;21.18;54.35
65376;BME280;51976;47.332;9.404;2022-08-21T07:24:12;93002.00;;;21.18;54.50
65376;BME280;51976;47.332;9.404;2022-08-21T07:26:38;93000.41;;;21.17;54.37
65376;BME280;51976;47.332;9.404;2022-08-21T07:29:03;93004.09;;;21.21;54.13
65376;BME280;51976;47.332;9.404;2022-08-21T07:31:29;93010.72;;;21.20;54.11
65376;BME280;51976;47.332;9.404;2022-08-21T07:33:55;93014.72;;;21.23;54.16
65376;BME280;51976;47.332;9.404;2022-08-21T07:36:20;93010.84;;;21.24;54.21
65376;BME280;51976;47.332;9.404;2022-08-21T07:38:45;93002.16;;;21.22;54.13
65376;BME280;51976;47.332;9.404;2022-08-21T07:41:16;93001.00;;;21.23;54.16
65376;BME280;51976;47.332;9.404;2022-08-21T07:43:43;92998.72;;;21.25;54.06
65376;BME280;51976;47.332;9.404;2022-08-21T07:46:09;93006.63;;;21.26;54.10
65376;BME280;51976;47.332;9.404;2022-08-21T07:48:35;93006.63;;;21.26;54.33
65376;BME280;51976;47.332;9.404;2022-08-21T07:51:04;93005.00;;;21.25;54.12
65376;BME280;51976;47.332;9.404;2022-08-21T07:53:30;93003.88;;;21.26;54.24
65376;BME280;51976;47.332;9.404;2022-08-21T07:55:59;93004.69;;;21.27;54.29
65376;BME280;51976;47.332;9.404;2022-08-21T07:58:24;93006.63;;;21.26;54.09
65376;BME280;51976;47.332;9.404;2022-08-21T08:00:50;93003.19;;;21.30;54.29
65376;BME280;51976;47.332;9.404;2022-08-21T08:03:15;93005.47;;;21.27;54.25
65376;BME280;51976;47.332;9.404;2022-08-21T08:05:40;92997.25;;;21.27;54.08
65376;BME280;51976;47.332;9.404;2022-08-21T08:08:06;93002.03;;;21.31;54.26
65376;BME280;51976;47.332;9.404;2022-08-21T08:10:32;92992.91;;;21.26;54.42
65376;BME280;51976;47.332;9.404;2022-08-21T08:12:58;92999.66;;;21.29;54.28
65376;BME280;51976;47.332;9.404;2022-08-21T08:15:25;93000.44;;;21.30;54.27
65376;BME280;51976;47.332;9.404;2022-08-21T08:17:51;92997.69;;;21.30;54.14
65376;BME280;51976;47.332;9.404;2022-08-21T08:20:18;92993.81;;;21.31;54.21
65376;BME280;51976;47.332;9.404;2022-08-21T08:22:45;92995.84;;;21.34;54.18
65376;BME280;51976;47.332;9.404;2022-08-21T08:25:12;92956.78;;;21.12;54.04
65376;BME280;51976;47.332;9.404;2022-08-21T08:27:39;92994.34;;;21.36;54.16
65376;BME280;51976;47.332;9.404;2022-08-21T08:30:06;92992.41;;;21.37;54.29
65376;BME280;51976;47.332;9.404;2022-08-21T08:32:32;92988.06;;;21.36;53.94
65376;BME280;51976;47.332;9.404;2022-08-21T08:34:58;92988.06;;;21.36;54.15
65376;BME280;51976;47.332;9.404;2022-08-21T08:37:24;92989.66;;;21.37;54.13
65376;BME280;51976;47.332;9.404;2022-08-21T08:39:50;92989.66;;;21.37;54.07
65376;BME280;51976;47.332;9.404;2022-08-21T08:42:23;92997.22;;;21.40;54.17
65376;BME280;51976;47.332;9.404;2022-08-21T08:44:57;92991.28;;;21.38;54.06
65376;BME280;51976;47.332;9.404;2022-08-21T08:47:24;92992.19;;;21.42;53.89
65376;BME280;51976;47.332;9.404;2022-08-21T08:50:00;92985.22;;;21.44;54.00
65376;BME280;51976;47.332;9.404;2022-08-21T08:52:30;92985.31;;;21.48;53.90
65376;BME280;51976;47.332;9.404;2022-08-21T08:55:06;92988.53;;;21.50;53.80
65376;BME280;51976;47.332;9.404;2022-08-21T08:57:33;92991.38;;;21.53;53.90
65376;BME280;51976;47.332;9.404;2022-08-21T09:00:05;92983.16;;;21.53;53.75
65376;BME280;51976;47.332;9.404;2022-08-21T09:02:31;92987.13;;;21.56;53.92
65376;BME280;51976;47.332;9.404;2022-08-21T09:04:59;92988.97;;;21.52;53.92
65376;BME280;51976;47.332;9.404;2022-08-21T09:07:50;92985.72;;;21.62;53.63
65376;BME280;51976;47.332;9.404;2022-08-21T09:10:22;92977.16;;;21.63;53.78
65376;BME280;51976;47.332;9.404;2022-08-21T09:13:11;92979.53;;;21.77;53.20
65376;BME280;51976;47.332;9.404;2022-08-21T09:19:23;92977.41;;;21.58;53.82
65376;BME280;51976;47.332;9.404;2022-08-21T09:21:53;92971.03;;;22.38;51.84
65376;BME280;51976;47.332;9.404;2022-08-21T09:24:31;92970.75;;;22.00;52.74
65376;BME280;51976;47.332;9.404;2022-08-21T09:27:12;92975.59;;;22.78;51.17
65376;BME280;51976;47.332;9.404;2022-08-21T09:29:42;92963.31;;;22.00;52.84
65376;BME280;51976;47.332;9.404;2022-08-21T09:32:19;92968.78;;;21.72;53.45
65376;BME280;51976;47.332;9.404;2022-08-21T09:35:13;92967.31;;;21.62;53.93
65376;BME280;51976;47.332;9.404;2022-08-21T09:38:00;92968.47;;;21.61;53.74
65376;BME280;51976;47.332;9.404;2022-08-21T09:40:41;92971.59;;;21.60;53.95
65376;BME280;51976;47.332;9.404;2022-08-21T09:43:18;92969.19;;;21.58;54.08
65376;BME280;51976;47.332;9.404;2022-08-21T09:45:45;92967.13;;;21.55;54.09
65376;BME280;51976;47.332;9.404;2022-08-21T09:48:20;92963.72;;;21.58;53.92
65376;BME280;51976;47.332;9.404;2022-08-21T09:50:47;92964.50;;;21.59;54.16
65376;BME280;51976;47.332;9.404;2022-08-21T09:53:19;92965.38;;;21.63;53.81
65376;BME280;51976;47.332;9.404;2022-08-21T09:55:55;92969.47;;;21.69;53.90
65376;BME280;51976;47.332;9.404;2022-08-21T09:58:45;92955.22;;;22.79;51.39
65376;BME280;51976;47.332;9.404;2022-08-21T10:01:19;92950.88;;;23.28;50.18
65376;BME280;51976;47.332;9.404;2022-08-21T10:03:45;92955.22;;;23.29;50.21
65376;BME280;51976;47.332;9.404;2022-08-21T10:06:23;92948.72;;;23.18;50.51
65376;BME280;51976;47.332;9.404;2022-08-21T10:08:49;92949.41;;;23.15;50.33
65376;BME280;51976;47.332;9.404;2022-08-21T10:11:16;92947.81;;;23.14;50.56
65376;BME280;51976;47.332;9.404;2022-08-21T10:14:09;92947.81;;;23.14;50.61
65376;BME280;51976;47.332;9.404;2022-08-21T10:16:58;92941.72;;;23.05;50.91
65376;BME280;51976;47.332;9.404;2022-08-21T10:19:45;92936.47;;;23.16;50.93
65376;BME280;51976;47.332;9.404;2022-08-21T10:22:37;92930.66;;;22.86;51.34
65376;BME280;51976;47.332;9.404;2022-08-21T10:25:23;92927.72;;;22.63;51.93
65376;BME280;51976;47.332;9.404;2022-08-21T10:28:02;92939.22;;;22.53;52.39
65376;BME280;51976;47.332;9.404;2022-08-21T10:30:49;92940.38;;;22.52;52.15
65376;BME280;51976;47.332;9.404;2022-08-21T10:33:33;92933.19;;;22.47;52.53
65376;BME280;51976;47.332;9.404;2022-08-21T10:36:16;92938.69;;;22.47;52.64
65376;BME280;51976;47.332;9.404;2022-08-21T10:39:15;92936.75;;;22.48;52.50
65376;BME280;51976;47.332;9.404;2022-08-21T10:42:17;92931.94;;;22.45;52.60
65376;BME280;51976;47.332;9.404;2022-08-21T10:45:00;92926.03;;;22.43;52.62
65376;BME280;51976;47.332;9.404;2022-08-21T10:47:36;92928.69;;;22.39;52.81
65376;BME280;51976;47.332;9.404;2022-08-21T10:50:22;92929.94;;;22.42;52.84
65376;BME280;51976;47.332;9.404;2022-08-21T10:53:29;92933.47;;;22.42;52.81
65376;BME280;51976;47.332;9.404;2022-08-21T10:56:00;92926.75;;;22.55;52.75
65376;BME280;51976;47.332;9.404;2022-08-21T10:58:36;92929.59;;;22.90;51.55
65376;BME280;51976;47.332;9.404;2022-08-21T11:01:13;92929.81;;;23.01;51.45
65376;BME280;51976;47.332;9.404;2022-08-21T11:03:44;92926.81;;;22.75;52.28
65376;BME280;51976;47.332;9.404;2022-08-21T11:06:16;92927.38;;;22.65;52.59
65376;BME280;51976;47.332;9.404;2022-08-21T11:08:46;92925.69;;;22.60;52.77
65376;BME280;51976;47.332;9.404;2022-08-21T11:11:20;92929.13;;;22.57;52.62
65376;BME280;51976;47.332;9.404;2022-08-21T11:13:56;92924.34;;;22.54;52.86
65376;BME280;51976;47.332;9.404;2022-08-21T11:16:36;92923.53;;;22.53;52.76
65376;BME280;51976;47.332;9.404;2022-08-21T11:19:12;92917.16;;;22.49;53.07
65376;BME280;51976;47.332;9.404;2022-08-21T11:21:45;92912.38;;;22.46;53.18
65376;BME280;51976;47.332;9.404;2022-08-21T11:24:30;92905.72;;;22.47;53.03
65376;BME280;51976;47.332;9.404;2022-08-21T11:27:07;92907.78;;;22.50;52.85
65376;BME280;51976;47.332;9.404;2022-08-21T11:29:38;92908.91;;;22.49;52.94
65376;BME280;51976;47.332;9.404;2022-08-21T11:32:31;92902.72;;;22.68;52.69
65376;BME280;51976;47.332;9.404;2022-08-21T11:35:38;92905.97;;;22.74;52.52
65376;BME280;51976;47.332;9.404;2022-08-21T11:38:30;92899.09;;;22.95;52.00
65376;BME280;51976;47.332;9.404;2022-08-21T11:41:31;92896.78;;;22.98;52.28
65376;BME280;51976;47.332;9.404;2022-08-21T11:44:23;92899.66;;;23.20;51.78
65376;BME280;51976;47.332;9.404;2022-08-21T11:47:05;92891.25;;;23.33;51.43
65376;BME280;51976;47.332;9.404;2022-08-21T11:49:54;92888.94;;;23.35;51.48
65376;BME280;51976;47.332;9.404;2022-08-21T11:52:32;92888.22;;;23.18;51.80
65376;BME280;51976;47.332;9.404;2022-08-21T11:55:06;92886.97;;;23.16;52.14
65376;BME280;51976;47.332;9.404;2022-08-21T11:57:39;92889.94;;;23.26;51.75
65376;BME280;51976;47.332;9.404;2022-08-21T12:00:33;92877.81;;;23.47;51.48
65376;BME280;51976;47.332;9.404;2022-08-21T12:03:09;92872.19;;;23.59;51.10
65376;BME280;51976;47.332;9.404;2022-08-21T12:05:39;92872.78;;;23.68;50.92
65376;BME280;51976;47.332;9.404;2022-08-21T12:08:12;92872.91;;;23.75;50.77
65376;BME280;51976;47.332;9.404;2022-08-21T12:10:46;92871.09;;;23.63;51.08
65376;BME280;51976;47.332;9.404;2022-08-21T12:13:27;92866.38;;;23.45;51.65
65376;BME280;51976;47.332;9.404;2022-08-21T12:16:05;92868.97;;;23.38;51.73
65376;BME280;51976;47.332;9.404;2022-08-21T12:18:31;92872.78;;;23.33;51.97
65376;BME280;51976;47.332;9.404;2022-08-21T12:21:04;92869.59;;;23.31;52.03
65376;BME280;51976;47.332;9.404;2022-08-21T12:23:33;92864.03;;;23.27;52.02
65376;BME280;51976;47.332;9.404;2022-08-21T12:26:24;92866.78;;;23.27;52.11
65376;BME280;51976;47.332;9.404;2022-08-21T12:28:51;92860.44;;;23.23;52.38
65376;BME280;51976;47.332;9.404;2022-08-21T12:31:27;92860.72;;;23.18;52.26
65376;BME280;51976;47.332;9.404;2022-08-21T12:33:59;92853.97;;;23.16;52.23
65376;BME280;51976;47.332;9.404;2022-08-21T12:36:43;92858.22;;;23.13;52.44
65376;BME280;51976;47.332;9.404;2022-08-21T12:39:15;92859.81;;;23.14;52.40
65376;BME280;51976;47.332;9.404;2022-08-21T12:41:57;92857.44;;;23.32;52.16
65376;BME280;51976;47.332;9.404;2022-08-21T12:44:35;92844.75;;;23.62;51.55
65376;BME280;51976;47.332;9.404;2022-08-21T12:47:11;92849.31;;;23.74;51.24
65376;BME280;51976;47.332;9.404;2022-08-21T12:49:49;92845.94;;;23.84;50.94
65376;BME280;51976;47.332;9.404;2022-08-21T12:52:32;92833.19;;;23.95;50.85
65376;BME280;51976;47.332;9.404;2022-08-21T12:54:59;92834.91;;;24.04;50.72
65376;BME280;51976;47.332;9.404;2022-08-21T12:57:27;92840.88;;;24.09;50.86
65376;BME280;51976;47.332;9.404;2022-08-21T12:59:55;92833.63;;;23.98;50.98
65376;BME280;51976;47.332;9.404;2022-08-21T13:02:24;92837.25;;;23.82;51.34
65376;BME280;51976;47.332;9.404;2022-08-21T13:04:52;92842.22;;;23.73;51.62
65376;BME280;51976;47.332;9.404;2022-08-21T13:07:26;92830.84;;;23.75;51.75
65376;BME280;51976;47.332;9.404;2022-08-21T13:09:57;92844.09;;;23.69;51.62
65376;BME280;51976;47.332;9.404;2022-08-21T13:12:23;92843.22;;;23.65;51.69
65376;BME280;51976;47.332;9.404;2022-08-21T13:14:51;92840.41;;;23.61;52.02
65376;BME280;51976;47.332;9.404;2022-08-21T13:17:21;92835.63;;;23.58;51.97
65376;BME280;51976;47.332;9.404;2022-08-21T13:19:58;92834.13;;;23.84;51.67
65376;BME280;51976;47.332;9.404;2022-08-21T13:22:26;92837.53;;;23.96;51.24
65376;BME280;51976;47.332;9.404;2022-08-21T13:24:52;92838.38;;;24.01;51.30
65376;BME280;51976;47.332;9.404;2022-08-21T13:27:28;92835.94;;;24.18;50.83
65376;BME280;51976;47.332;9.404;2022-08-21T13:30:19;92830.88;;;24.20;50.93